createdAt,value
2023-01-17T00:01:29.427Z,73.29
2023-01-17T00:04:15.426Z,76.12
2023-01-17T00:07:01.177Z,73.59
2023-01-17T00:09:46.821Z,73.87
2023-01-17T00:12:13.668Z,71.13
2023-01-17T00:14:40.315Z,69.12
2023-01-17T00:17:07.158Z,74.02
2023-01-17T00:19:52.806Z,66.50
2023-01-17T00:22:44.454Z,70.55
2023-01-17T00:25:34.227Z,69.86
2023-01-17T00:28:01.027Z,68.98
2023-01-17T00:30:28.845Z,66.69
2023-01-17T00:32:55.683Z,65.77
2023-01-17T00:35:22.699Z,67.50
2023-01-17T00:37:49.887Z,67.13
2023-01-17T00:40:16.758Z,65.46
2023-01-17T00:42:43.529Z,65.31
2023-01-17T00:45:28.722Z,66.26
2023-01-17T00:48:14.365Z,65.50
2023-01-17T00:50:59.857Z,65.46
2023-01-17T00:53:45.300Z,69.53
2023-01-17T00:56:30.967Z,65.93
2023-01-17T00:59:16.469Z,70.76
2023-01-17T01:02:02.103Z,73.58
2023-01-17T01:04:47.592Z,69.01
2023-01-17T01:07:33.106Z,67.71
2023-01-17T01:10:20.892Z,67.16
2023-01-17T01:13:06.467Z,66.85
2023-01-17T01:15:52.233Z,71.78
2023-01-17T01:18:37.977Z,66.82
2023-01-17T01:21:24.610Z,64.25
2023-01-17T01:24:10.224Z,62.74
2023-01-17T01:26:55.806Z,66.08
2023-01-17T01:29:41.368Z,64.36
2023-01-17T01:32:27.060Z,68.32
2023-01-17T01:34:53.953Z,68.28
2023-01-17T01:37:20.784Z,69.92
2023-01-17T01:39:48.466Z,71.04
2023-01-17T01:42:16.029Z,72.81
2023-01-17T01:44:46.150Z,73.07
2023-01-17T01:47:19.839Z,77.47
2023-01-17T01:49:48.798Z,77.37
2023-01-17T01:52:16.139Z,77.73
2023-01-17T01:54:54.838Z,81.30
2023-01-17T01:57:23.886Z,81.82
2023-01-17T01:59:56.239Z,83.95
2023-01-17T02:02:23.130Z,83.48
2023-01-17T02:04:50.368Z,85.54
2023-01-17T02:07:24.427Z,85.77
2023-01-17T02:09:51.843Z,86.96
2023-01-17T02:12:20.362Z,83.19
2023-01-17T02:14:47.205Z,82.26
2023-01-17T02:17:30.702Z,85.44
2023-01-17T02:20:24.995Z,85.46
2023-01-17T02:23:08.832Z,88.33
2023-01-17T02:26:11.235Z,88.52
2023-01-17T02:28:53.196Z,94.38
2023-01-17T02:31:51.005Z,90.66
2023-01-17T02:34:25.566Z,93.12
2023-01-17T02:37:08.520Z,91.33
2023-01-17T02:39:40.123Z,92.27
2023-01-17T02:42:11.263Z,90.51
2023-01-17T02:44:42.237Z,94.76
2023-01-17T02:47:29.664Z,95.06
2023-01-17T02:50:06.109Z,95.82
2023-01-17T02:52:54.903Z,96.55
2023-01-17T02:55:37.025Z,91.21
2023-01-17T02:58:23.107Z,93.09
2023-01-17T03:01:26.839Z,91.55
2023-01-17T03:04:24.517Z,87.83
2023-01-17T03:06:56.107Z,83.73
2023-01-17T03:09:23.137Z,84.42
2023-01-17T03:11:50.050Z,90.22
2023-01-17T03:14:16.972Z,89.97
2023-01-17T03:16:44.471Z,91.25
2023-01-17T03:19:11.366Z,91.23
2023-01-17T03:21:38.256Z,89.93
2023-01-17T03:24:05.284Z,93.84
2023-01-17T03:26:32.124Z,94.22
2023-01-17T03:28:58.763Z,96.21
2023-01-17T03:31:25.758Z,92.67
2023-01-17T03:33:52.640Z,87.70
2023-01-17T03:36:20.454Z,87.41
2023-01-17T03:38:47.330Z,88.18
2023-01-17T03:41:14.245Z,89.13
2023-01-17T03:43:41.110Z,90.86
2023-01-17T03:46:27.599Z,91.22
2023-01-17T03:48:54.992Z,93.83
2023-01-17T03:51:21.924Z,93.60
2023-01-17T03:53:50.100Z,95.94
2023-01-17T03:56:17.093Z,94.32
2023-01-17T03:58:44.221Z,92.60
2023-01-17T04:01:11.608Z,95.83
2023-01-17T04:03:40.095Z,93.17
2023-01-17T04:06:07.165Z,93.71
2023-01-17T04:08:34.091Z,92.10
2023-01-17T04:11:01.093Z,89.97
2023-01-17T04:13:27.933Z,89.77
2023-01-17T04:15:54.595Z,92.58
2023-01-17T04:18:23.232Z,93.99
2023-01-17T04:20:51.016Z,94.42
2023-01-17T04:23:18.328Z,96.23
2023-01-17T04:25:45.234Z,95.51
2023-01-17T04:28:12.344Z,96.62
2023-01-17T04:30:39.265Z,94.40
2023-01-17T04:33:06.161Z,92.57
2023-01-17T04:35:33.798Z,93.67
2023-01-17T04:38:01.007Z,91.92
2023-01-17T04:40:29.710Z,93.75
2023-01-17T04:42:59.761Z,91.34
2023-01-17T04:45:26.732Z,90.28
2023-01-17T04:47:53.590Z,92.27
2023-01-17T04:50:20.292Z,92.76
2023-01-17T04:52:47.151Z,91.99
2023-01-17T04:55:13.954Z,91.44
2023-01-17T04:57:40.870Z,92.24
2023-01-17T05:00:08.636Z,93.84
2023-01-17T05:02:35.577Z,93.96
2023-01-17T05:05:02.465Z,94.37
2023-01-17T05:07:29.173Z,94.54
2023-01-17T05:09:56.021Z,92.10
2023-01-17T05:12:22.724Z,90.10
2023-01-17T05:14:49.558Z,89.44
2023-01-17T05:17:16.210Z,89.73
2023-01-17T05:19:43.063Z,88.19
2023-01-17T05:22:15.369Z,88.82
2023-01-17T05:24:43.781Z,88.89
2023-01-17T05:27:11.751Z,86.52
2023-01-17T05:29:38.956Z,86.25
2023-01-17T05:32:06.454Z,86.89
2023-01-17T05:34:33.762Z,87.85
2023-01-17T05:37:00.646Z,86.34
2023-01-17T05:39:27.477Z,85.43
2023-01-17T05:41:54.223Z,86.22
2023-01-17T05:44:21.096Z,85.30
2023-01-17T05:46:47.928Z,85.22
2023-01-17T05:49:14.575Z,86.09
2023-01-17T05:51:41.455Z,86.12
2023-01-17T05:54:08.306Z,86.04
2023-01-17T05:56:34.951Z,84.58
2023-01-17T05:59:01.823Z,85.77
2023-01-17T06:01:28.775Z,85.17
2023-01-17T06:03:55.659Z,83.53
2023-01-17T06:06:22.587Z,82.87
2023-01-17T06:08:49.483Z,84.15
2023-01-17T06:11:16.361Z,80.85
2023-01-17T06:13:43.195Z,81.64
2023-01-17T06:16:09.980Z,81.34
2023-01-17T06:18:36.838Z,79.22
2023-01-17T06:21:03.632Z,78.50
2023-01-17T06:23:30.527Z,78.33
2023-01-17T06:25:57.387Z,76.86
2023-01-17T06:28:24.646Z,74.03
2023-01-17T06:30:51.561Z,70.72
2023-01-17T06:33:18.434Z,70.26
2023-01-17T06:35:52.710Z,68.96
2023-01-17T06:38:19.961Z,67.97
2023-01-17T06:40:47.019Z,73.00
2023-01-17T06:43:13.928Z,72.74
2023-01-17T06:45:40.777Z,75.19
2023-01-17T06:48:07.463Z,76.74
2023-01-17T06:50:34.684Z,77.01
2023-01-17T06:53:04.408Z,75.04
2023-01-17T06:58:37.413Z,74.43
2023-01-17T07:01:18.554Z,70.31
2023-01-17T07:03:45.814Z,70.28
2023-01-17T07:06:12.917Z,72.94
2023-01-17T07:08:39.883Z,71.34
2023-01-17T07:11:08.992Z,70.99
2023-01-17T07:13:38.728Z,70.88
2023-01-17T07:16:06.362Z,69.20
2023-01-17T07:18:33.861Z,67.99
2023-01-17T07:21:01.383Z,67.10
2023-01-17T07:23:28.269Z,67.29
2023-01-17T07:25:59.458Z,65.68
2023-01-17T07:28:27.904Z,63.92
2023-01-17T07:30:55.850Z,64.97
2023-01-17T07:33:22.843Z,61.65
2023-01-17T07:35:49.691Z,60.89
2023-01-17T07:38:19.050Z,58.32
2023-01-17T07:44:27.389Z,68.37
2023-01-17T07:46:54.992Z,75.42
2023-01-17T07:49:21.852Z,76.72
2023-01-17T07:51:55.432Z,78.40
2023-01-17T07:54:22.349Z,75.90
2023-01-17T07:56:49.180Z,76.44
2023-01-17T07:59:15.857Z,73.01
2023-01-17T08:01:42.845Z,73.00
2023-01-17T08:04:10.027Z,73.32
2023-01-17T08:06:38.042Z,77.10
2023-01-17T08:09:04.974Z,76.69
2023-01-17T08:11:31.855Z,77.33
2023-01-17T08:13:59.876Z,76.36
2023-01-17T08:16:28.876Z,77.68
2023-01-17T08:18:56.650Z,73.01
2023-01-17T08:21:23.928Z,73.90
2023-01-17T08:23:51.976Z,73.76
2023-01-17T08:26:23.360Z,73.14
2023-01-17T08:29:03.104Z,71.65
2023-01-17T08:31:31.785Z,72.69
2023-01-17T08:33:58.742Z,74.59
2023-01-17T08:36:26.026Z,75.92
2023-01-17T08:38:53.108Z,71.70
2023-01-17T08:41:21.102Z,68.40
2023-01-17T08:43:52.004Z,66.40
2023-01-17T08:46:19.512Z,66.12
2023-01-17T08:48:46.613Z,68.31
2023-01-17T08:51:13.634Z,63.80
2023-01-17T08:53:40.879Z,63.82
2023-01-17T08:56:07.992Z,60.02
2023-01-17T08:58:35.983Z,57.85
2023-01-17T09:01:04.926Z,55.32
2023-01-17T09:03:32.667Z,55.04
2023-01-17T09:06:06.955Z,53.27
2023-01-17T09:08:34.446Z,51.44
2023-01-17T09:11:12.404Z,55.97
2023-01-17T09:13:40.002Z,55.61
2023-01-17T09:16:07.500Z,57.61
2023-01-17T09:18:35.551Z,57.96
2023-01-17T09:21:16.935Z,58.31
2023-01-17T09:23:44.551Z,58.82
2023-01-17T09:26:26.138Z,60.86
2023-01-17T09:28:53.512Z,62.67
2023-01-17T09:31:21.775Z,61.18
2023-01-17T09:33:49.558Z,60.53
2023-01-17T09:36:16.759Z,60.31
2023-01-17T09:38:43.731Z,59.22
2023-01-17T09:41:22.207Z,60.51
2023-01-17T09:44:04.765Z,59.12
2023-01-17T09:46:37.913Z,54.44
2023-01-17T09:49:09.311Z,55.22
2023-01-17T09:51:36.651Z,52.36
2023-01-17T09:54:03.646Z,47.83
2023-01-17T09:56:41.626Z,45.89
2023-01-17T09:59:33.066Z,44.93
2023-01-17T10:02:30.758Z,45.54
2023-01-17T10:05:16.440Z,44.04
2023-01-17T10:08:11.443Z,43.54
2023-01-17T10:10:43.782Z,40.82
2023-01-17T10:13:36.770Z,39.31
2023-01-17T10:16:08.932Z,41.83
2023-01-17T10:18:56.265Z,43.03
2023-01-17T10:21:29.988Z,37.47
2023-01-17T10:24:16.483Z,38.67
2023-01-17T10:26:47.098Z,42.13
2023-01-17T10:29:20.190Z,37.54
2023-01-17T10:31:59.888Z,40.05
2023-01-17T10:34:42.399Z,43.15
2023-01-17T10:37:24.799Z,42.75
2023-01-17T10:39:54.682Z,45.25
2023-01-17T10:42:41.741Z,44.52
2023-01-17T10:45:21.622Z,43.63
2023-01-17T10:47:51.613Z,44.53
2023-01-17T10:50:19.999Z,44.71
2023-01-17T10:53:17.501Z,44.47
2023-01-17T10:55:56.153Z,43.55
2023-01-17T10:58:22.991Z,44.75
2023-01-17T11:00:54.234Z,43.57
2023-01-17T11:03:21.443Z,43.81
2023-01-17T11:06:23.631Z,47.66
2023-01-17T11:08:58.699Z,46.89
2023-01-17T11:11:32.066Z,46.16
2023-01-17T11:14:01.175Z,45.74
2023-01-17T11:16:31.546Z,46.76
2023-01-17T11:19:26.813Z,46.99
2023-01-17T11:21:57.779Z,47.94
2023-01-17T11:24:35.476Z,47.23
2023-01-17T11:27:04.879Z,50.60
2023-01-17T11:29:37.985Z,47.50
2023-01-17T11:32:32.371Z,47.42
2023-01-17T11:35:17.612Z,47.50
2023-01-17T11:37:50.257Z,48.92
2023-01-17T11:40:30.322Z,49.08
2023-01-17T11:43:22.056Z,52.21
2023-01-17T11:46:17.983Z,51.24
2023-01-17T11:48:56.468Z,50.38
2023-01-17T11:51:30.311Z,48.43
2023-01-17T11:54:22.087Z,49.21
2023-01-17T11:56:50.686Z,52.10
2023-01-17T11:59:30.506Z,51.19
2023-01-17T12:02:34.960Z,51.83
2023-01-17T12:05:21.262Z,53.24
2023-01-17T12:08:09.633Z,51.09
2023-01-17T12:10:55.089Z,53.67
2023-01-17T12:14:03.176Z,55.05
2023-01-17T12:16:57.945Z,54.94
2023-01-17T12:19:34.795Z,56.90
2023-01-17T12:22:10.698Z,56.24
2023-01-17T12:25:07.169Z,57.63
2023-01-17T12:27:51.601Z,56.73
2023-01-17T12:30:48.971Z,57.86
2023-01-17T12:33:45.846Z,57.54
2023-01-17T12:36:26.986Z,58.04
2023-01-17T12:38:53.835Z,59.11
2023-01-17T12:41:31.580Z,60.40
2023-01-17T12:44:00.274Z,61.65
2023-01-17T12:46:38.711Z,62.11
2023-01-17T12:49:28.930Z,63.28
2023-01-17T12:52:05.651Z,65.06
2023-01-17T12:54:41.734Z,64.72
2023-01-17T12:57:45.268Z,65.46
2023-01-17T13:00:23.418Z,63.04
2023-01-17T13:03:02.310Z,62.99
2023-01-17T13:05:41.932Z,64.83
2023-01-17T13:08:34.524Z,65.22
2023-01-17T13:11:28.047Z,68.35
2023-01-17T13:13:57.639Z,66.38
2023-01-17T13:16:35.409Z,68.46
2023-01-17T13:19:15.276Z,67.94
2023-01-17T13:21:42.716Z,70.38
2023-01-17T13:24:21.101Z,68.71
2023-01-17T13:26:50.978Z,70.01
2023-01-17T13:29:30.138Z,70.00
2023-01-17T13:32:11.091Z,71.78
2023-01-17T13:34:44.559Z,71.08
2023-01-17T13:37:34.410Z,70.66
2023-01-17T13:40:32.109Z,71.04
2023-01-17T13:43:06.443Z,69.52
2023-01-17T13:45:35.749Z,68.38
2023-01-17T13:48:18.392Z,67.22
2023-01-17T13:50:46.139Z,64.55
2023-01-17T13:53:39.373Z,65.31
2023-01-17T13:56:27.796Z,65.59
2023-01-17T13:59:02.872Z,66.20
2023-01-17T14:01:34.811Z,70.64
2023-01-17T14:04:04.843Z,74.00
2023-01-17T14:06:36.543Z,75.72
2023-01-17T14:09:14.300Z,73.58
2023-01-17T14:12:18.686Z,77.22
2023-01-17T14:14:48.833Z,75.68
2023-01-17T14:17:25.921Z,75.71
2023-01-17T14:19:54.976Z,75.54
2023-01-17T14:22:21.723Z,76.38
2023-01-17T14:25:09.922Z,77.38
2023-01-17T14:27:48.752Z,76.65
2023-01-17T14:30:28.611Z,80.46
2023-01-17T14:33:04.808Z,81.86
2023-01-17T14:35:37.292Z,83.27
2023-01-17T14:38:15.691Z,83.29
2023-01-17T14:40:51.888Z,84.38
2023-01-17T14:43:24.241Z,83.49
2023-01-17T14:45:58.829Z,80.49
2023-01-17T14:48:26.064Z,80.70
2023-01-17T14:50:54.644Z,82.21
2023-01-17T14:53:28.326Z,83.04
2023-01-17T14:56:11.607Z,79.42
2023-01-17T14:58:39.427Z,78.77
2023-01-17T15:01:20.309Z,77.78
2023-01-17T15:03:53.633Z,77.78
2023-01-17T15:06:25.824Z,80.68
2023-01-17T15:08:54.283Z,80.18
2023-01-17T15:11:26.767Z,83.27
2023-01-17T15:13:57.551Z,79.66
2023-01-17T15:16:27.356Z,79.06
2023-01-17T15:18:55.179Z,80.30
2023-01-17T15:21:28.765Z,81.35
2023-01-17T15:23:59.683Z,86.37
2023-01-17T15:26:33.617Z,83.80
2023-01-17T15:29:05.179Z,85.20
2023-01-17T15:31:47.475Z,85.84
2023-01-17T15:34:30.104Z,84.87
2023-01-17T15:37:08.150Z,86.80
2023-01-17T15:39:36.921Z,83.08
2023-01-17T15:42:06.885Z,85.91
2023-01-17T15:44:48.519Z,88.79
2023-01-17T15:47:32.644Z,89.48
2023-01-17T15:50:00.851Z,87.52
2023-01-17T15:52:28.609Z,86.81
2023-01-17T15:55:11.415Z,86.09
2023-01-17T15:57:39.030Z,87.51
2023-01-17T16:00:19.849Z,90.51
2023-01-17T16:02:47.345Z,92.83
2023-01-17T16:05:23.924Z,97.01
2023-01-17T16:07:58.221Z,94.50
2023-01-17T16:10:28.887Z,91.14
2023-01-17T16:12:56.416Z,90.60
2023-01-17T16:15:24.048Z,92.79
2023-01-17T16:17:56.896Z,95.94
2023-01-17T16:20:26.674Z,93.56
2023-01-17T16:22:53.688Z,94.10
2023-01-17T16:25:22.443Z,92.97
2023-01-17T16:27:50.246Z,92.95
2023-01-17T16:30:19.705Z,96.86
2023-01-17T16:32:50.776Z,94.86
2023-01-17T16:35:22.289Z,98.17
2023-01-17T16:37:54.280Z,98.26
2023-01-17T16:40:23.650Z,98.96
2023-01-17T16:42:50.711Z,100.00
2023-01-17T16:45:18.074Z,98.15
2023-01-17T16:47:46.674Z,98.38
2023-01-17T16:50:16.247Z,96.18
2023-01-17T16:52:43.109Z,96.36
2023-01-17T16:55:12.356Z,98.35
2023-01-17T16:57:39.441Z,96.58
2023-01-17T17:00:07.953Z,97.37
2023-01-17T17:02:35.074Z,97.39
2023-01-17T17:05:01.919Z,96.20
2023-01-17T17:07:28.613Z,96.93
2023-01-17T17:09:55.505Z,97.78
2023-01-17T17:12:22.369Z,100.00
2023-01-17T17:14:49.266Z,98.46
2023-01-17T17:17:16.112Z,98.21
2023-01-17T17:19:42.951Z,96.92
2023-01-17T17:22:09.798Z,92.92
2023-01-17T17:24:36.455Z,94.76
2023-01-17T17:27:03.336Z,95.25
2023-01-17T17:29:30.209Z,90.23
2023-01-17T17:31:57.093Z,89.83
2023-01-17T17:34:25.800Z,89.35
2023-01-17T17:36:52.952Z,85.37
2023-01-17T17:39:19.836Z,86.10
2023-01-17T17:41:47.414Z,88.42
2023-01-17T17:44:14.442Z,93.50
2023-01-17T17:46:42.506Z,92.95
2023-01-17T17:49:09.563Z,96.34
2023-01-17T17:51:38.475Z,95.93
2023-01-17T17:54:10.234Z,93.62
2023-01-17T17:56:37.954Z,94.17
2023-01-17T17:59:06.327Z,90.11
2023-01-17T18:01:33.682Z,90.17
2023-01-17T18:04:04.759Z,92.16
2023-01-17T18:06:31.621Z,93.51
2023-01-17T18:08:58.253Z,93.11
2023-01-17T18:11:26.821Z,92.53
2023-01-17T18:13:56.327Z,91.47
2023-01-17T18:16:37.509Z,92.13
2023-01-17T18:19:05.015Z,93.71
2023-01-17T18:21:34.554Z,95.80
2023-01-17T18:24:05.977Z,94.58
2023-01-17T18:26:35.662Z,91.98
2023-01-17T18:29:04.088Z,97.04
2023-01-17T18:31:31.506Z,97.51
2023-01-17T18:34:00.470Z,100.00
2023-01-17T18:36:30.833Z,97.76
2023-01-17T18:38:58.014Z,98.63
2023-01-17T18:41:27.250Z,98.85
2023-01-17T18:43:56.180Z,97.76
2023-01-17T18:46:23.660Z,99.80
2023-01-17T18:48:51.450Z,99.32
2023-01-17T18:51:19.635Z,100.00
2023-01-17T18:53:46.935Z,100.00
2023-01-17T18:56:18.870Z,100.00
2023-01-17T18:58:47.258Z,100.00
2023-01-17T19:01:19.839Z,100.00
2023-01-17T19:03:48.105Z,100.00
2023-01-17T19:06:26.419Z,100.00
2023-01-17T19:08:53.522Z,100.00
2023-01-17T19:11:22.089Z,100.00
2023-01-17T19:13:50.405Z,100.00
2023-01-17T19:16:24.580Z,100.00
2023-01-17T19:18:52.669Z,100.00
2023-01-17T19:21:22.758Z,100.00
2023-01-17T19:23:50.681Z,100.00
2023-01-17T19:26:20.064Z,100.00
2023-01-17T19:28:48.394Z,100.00
2023-01-17T19:31:18.018Z,100.00
2023-01-17T19:33:47.063Z,100.00
2023-01-17T19:36:19.629Z,100.00
2023-01-17T19:39:03.020Z,100.00
2023-01-17T19:41:30.876Z,100.00
2023-01-17T19:44:02.498Z,100.00
2023-01-17T19:46:30.093Z,100.00
2023-01-17T19:48:57.891Z,100.00
2023-01-17T19:51:25.429Z,100.00
2023-01-17T19:53:53.785Z,100.00
2023-01-17T19:56:23.779Z,100.00
2023-01-17T19:58:51.036Z,100.00
2023-01-17T20:01:24.793Z,100.00
2023-01-17T20:03:52.458Z,100.00
2023-01-17T20:06:21.313Z,100.00
2023-01-17T20:08:48.196Z,100.00
2023-01-17T20:11:19.313Z,100.00
2023-01-17T20:13:47.220Z,100.00
2023-01-17T20:16:15.641Z,100.00
2023-01-17T20:18:42.892Z,100.00
2023-01-17T20:21:15.200Z,100.00
2023-01-17T20:23:43.765Z,100.00
2023-01-17T20:26:11.503Z,100.00
2023-01-17T20:28:40.569Z,100.00
2023-01-17T20:31:09.667Z,100.00
2023-01-17T20:33:36.810Z,100.00
2023-01-17T20:36:10.427Z,100.00
2023-01-17T20:38:45.412Z,100.00
2023-01-17T20:41:21.428Z,100.00
2023-01-17T20:43:53.032Z,100.00
2023-01-17T20:46:22.011Z,100.00
2023-01-17T20:48:50.967Z,100.00
2023-01-17T20:51:18.821Z,99.21
2023-01-17T20:53:46.991Z,98.35
2023-01-17T20:56:15.517Z,100.00
2023-01-17T20:58:42.835Z,95.45
2023-01-17T21:01:11.375Z,92.12
2023-01-17T21:03:39.427Z,94.10
2023-01-17T21:06:08.783Z,88.58
2023-01-17T21:08:38.244Z,88.22
2023-01-17T21:11:06.038Z,84.09
2023-01-17T21:13:33.096Z,81.84
2023-01-17T21:15:59.994Z,87.13
2023-01-17T21:18:28.281Z,90.24
2023-01-17T21:20:55.160Z,95.18
2023-01-17T21:23:26.444Z,93.09
2023-01-17T21:25:55.685Z,95.55
2023-01-17T21:28:24.326Z,96.50
2023-01-17T21:30:51.774Z,99.29
2023-01-17T21:33:19.897Z,95.03
2023-01-17T21:35:47.036Z,93.67
2023-01-17T21:38:14.521Z,93.83
2023-01-17T21:40:42.507Z,94.42
2023-01-17T21:43:09.807Z,82.58
2023-01-17T21:45:37.590Z,80.71
2023-01-17T21:48:04.974Z,79.77
2023-01-17T21:50:33.498Z,81.10
2023-01-17T21:53:01.134Z,77.68
2023-01-17T21:55:46.758Z,79.45
2023-01-17T21:58:33.707Z,82.96
2023-01-17T22:01:30.572Z,87.85
2023-01-17T22:03:59.756Z,79.58
2023-01-17T22:06:28.738Z,74.00
2023-01-17T22:08:56.293Z,74.50
2023-01-17T22:11:24.903Z,77.32
2023-01-17T22:13:52.282Z,83.44
2023-01-17T22:16:24.331Z,77.73
2023-01-17T22:18:52.017Z,74.62
2023-01-17T22:21:20.941Z,66.15
2023-01-17T22:23:55.654Z,68.30
2023-01-17T22:26:25.038Z,70.08
2023-01-17T22:28:53.196Z,70.97
2023-01-17T22:31:24.752Z,73.29
2023-01-17T22:33:56.790Z,74.45
2023-01-17T22:36:23.880Z,68.71
2023-01-17T22:38:50.842Z,63.25
2023-01-17T22:41:22.019Z,62.06
2023-01-17T22:43:52.866Z,63.45
2023-01-17T22:46:22.510Z,62.69
2023-01-17T22:48:49.722Z,67.24
2023-01-17T22:51:17.981Z,69.13
2023-01-17T22:53:53.130Z,68.46
2023-01-17T22:56:23.131Z,69.24
2023-01-17T22:58:50.386Z,69.39
2023-01-17T23:01:24.220Z,69.78
2023-01-17T23:03:59.364Z,69.47
2023-01-17T23:06:29.597Z,68.67
2023-01-17T23:08:58.571Z,68.89
2023-01-17T23:11:39.199Z,65.39
2023-01-17T23:14:13.345Z,64.94
2023-01-17T23:17:01.135Z,65.35
2023-01-17T23:19:30.136Z,67.79
2023-01-17T23:22:20.313Z,67.73
2023-01-17T23:25:01.064Z,68.41
2023-01-17T23:27:53.516Z,70.48
2023-01-17T23:30:25.882Z,73.28
2023-01-17T23:32:55.726Z,72.02
2023-01-17T23:35:25.464Z,74.34
2023-01-17T23:38:10.820Z,73.75
2023-01-17T23:40:38.676Z,70.47
2023-01-17T23:43:24.113Z,74.31
2023-01-17T23:45:52.375Z,73.91
2023-01-17T23:48:19.606Z,72.02
2023-01-17T23:50:47.768Z,76.62
2023-01-17T23:53:22.586Z,75.40
2023-01-17T23:55:57.211Z,76.70
2023-01-17T23:58:26.572Z,75.79
